createdAt,value
2023-01-12T00:02:57.267Z,84.40
2023-01-12T00:07:00.324Z,93.72
2023-01-12T00:11:02.895Z,93.22
2023-01-12T00:15:05.431Z,101.20
2023-01-12T00:19:13.290Z,100.28
2023-01-12T00:23:15.413Z,113.25
2023-01-12T00:27:19.972Z,94.85
2023-01-12T00:31:22.718Z,100.03
2023-01-12T00:35:24.487Z,104.47
2023-01-12T00:39:26.543Z,100.18
2023-01-12T00:43:46.764Z,107.75
2023-01-12T00:47:49.003Z,100.45
2023-01-12T00:51:51.077Z,106.18
2023-01-12T00:55:53.147Z,103.88
2023-01-12T00:59:58.077Z,106.35
2023-01-12T01:04:00.934Z,104.50
2023-01-12T01:08:04.482Z,103.80
2023-01-12T01:12:06.607Z,121.72
2023-01-12T01:16:09.084Z,97.25
2023-01-12T01:20:12.479Z,98.57
2023-01-12T01:24:15.086Z,110.35
2023-01-12T01:28:17.754Z,98.07
2023-01-12T01:32:19.901Z,97.68
2023-01-12T01:36:22.036Z,105.43
2023-01-12T01:40:24.498Z,101.90
2023-01-12T01:44:29.703Z,100.15
2023-01-12T01:48:34.109Z,95.10
2023-01-12T01:52:41.457Z,97.55
2023-01-12T01:56:45.351Z,99.53
2023-01-12T02:00:47.499Z,109.22
2023-01-12T02:04:49.546Z,101.80
2023-01-12T02:08:57.515Z,109.32
2023-01-12T02:13:18.161Z,104.25
2023-01-12T02:17:53.676Z,105.53
2023-01-12T02:22:20.984Z,126.95
2023-01-12T02:26:38.198Z,109.68
2023-01-12T02:30:51.961Z,125.78
2023-01-12T02:35:34.970Z,103.38
2023-01-12T02:39:58.981Z,111.10
2023-01-12T02:44:02.567Z,121.65
2023-01-12T02:48:12.109Z,110.30
2023-01-12T02:52:17.864Z,125.88
2023-01-12T02:56:30.254Z,124.25
2023-01-12T03:00:35.596Z,112.05
2023-01-12T03:04:38.038Z,108.35
2023-01-12T03:08:40.294Z,111.80
2023-01-12T03:12:44.924Z,122.57
2023-01-12T03:16:46.788Z,108.15
2023-01-12T03:20:53.575Z,117.57
2023-01-12T03:24:59.046Z,118.72
2023-01-12T03:29:15.054Z,117.57
2023-01-12T03:33:17.445Z,117.97
2023-01-12T03:37:34.643Z,125.10
2023-01-12T03:41:41.837Z,119.15
2023-01-12T03:45:52.420Z,111.57
2023-01-12T03:49:57.832Z,103.28
2023-01-12T03:54:00.533Z,120.00
2023-01-12T03:58:02.736Z,130.45
2023-01-12T04:02:04.769Z,113.32
2023-01-12T04:06:08.263Z,116.13
2023-01-12T04:10:10.614Z,109.53
2023-01-12T04:14:12.577Z,119.68
2023-01-12T04:18:14.675Z,113.50
2023-01-12T04:22:35.496Z,108.45
2023-01-12T04:26:37.493Z,101.32
2023-01-12T04:30:39.623Z,97.15
2023-01-12T04:34:41.655Z,120.35
2023-01-12T04:38:43.394Z,99.38
2023-01-12T04:43:07.026Z,127.70
2023-01-12T04:47:10.972Z,97.30
2023-01-12T04:51:12.822Z,100.70
2023-01-12T04:55:14.831Z,112.25
2023-01-12T04:59:16.599Z,105.10
2023-01-12T05:03:18.660Z,120.75
2023-01-12T05:07:20.685Z,107.57
2023-01-12T05:11:28.436Z,99.85
2023-01-12T05:15:30.484Z,93.63
2023-01-12T05:19:32.467Z,83.50
2023-01-12T05:23:34.587Z,96.55
2023-01-12T05:27:36.535Z,81.05
2023-01-12T05:31:38.555Z,94.60
2023-01-12T05:35:40.499Z,93.47
2023-01-12T05:39:42.513Z,87.72
2023-01-12T05:43:50.253Z,97.05
2023-01-12T05:47:59.813Z,107.25
2023-01-12T05:52:01.861Z,105.43
2023-01-12T05:56:08.383Z,104.85
2023-01-12T06:00:10.861Z,114.03
2023-01-12T06:04:14.391Z,116.40
2023-01-12T06:08:16.441Z,100.43
2023-01-12T06:12:36.590Z,115.13
2023-01-12T06:16:40.941Z,106.15
2023-01-12T06:20:42.998Z,109.53
2023-01-12T06:24:48.945Z,115.93
2023-01-12T06:28:51.027Z,112.55
2023-01-12T06:32:53.105Z,109.80
2023-01-12T06:36:55.063Z,133.70
2023-01-12T06:41:08.790Z,106.40
2023-01-12T06:45:10.933Z,120.30
2023-01-12T06:49:12.905Z,119.90
2023-01-12T06:53:14.865Z,128.68
2023-01-12T06:57:17.144Z,113.07
2023-01-12T07:01:19.571Z,115.68
2023-01-12T07:05:21.583Z,117.47
2023-01-12T07:09:23.561Z,130.25
2023-01-12T07:13:25.439Z,148.98
2023-01-12T07:17:27.423Z,116.28
2023-01-12T07:21:29.493Z,123.50
2023-01-12T07:25:31.492Z,113.25
2023-01-12T07:29:33.441Z,126.70
2023-01-12T07:33:37.718Z,110.63
2023-01-12T07:37:39.696Z,120.38
2023-01-12T07:42:00.440Z,117.53
2023-01-12T07:46:02.609Z,99.43
2023-01-12T07:50:05.308Z,108.72
2023-01-12T07:54:07.345Z,95.03
2023-01-12T07:58:10.063Z,107.60
2023-01-12T08:02:16.591Z,97.85
2023-01-12T08:06:18.744Z,92.13
2023-01-12T08:10:20.974Z,102.38
2023-01-12T08:14:28.119Z,92.28
2023-01-12T08:18:59.717Z,85.88
2023-01-12T08:23:16.672Z,89.90
2023-01-12T08:27:23.070Z,81.85
2023-01-12T08:31:26.299Z,79.75
2023-01-12T08:35:32.296Z,82.13
2023-01-12T08:39:35.368Z,74.38
2023-01-12T08:43:55.944Z,81.35
2023-01-12T08:47:58.010Z,86.93
2023-01-12T08:52:00.012Z,80.25
2023-01-12T08:56:02.180Z,76.85
2023-01-12T09:00:05.165Z,66.40
2023-01-12T09:04:07.141Z,60.13
2023-01-12T09:08:08.826Z,65.95
2023-01-12T09:12:10.772Z,62.58
2023-01-12T09:16:16.314Z,52.38
2023-01-12T09:20:18.334Z,56.75
2023-01-12T09:24:20.581Z,54.67
2023-01-12T09:28:23.228Z,47.40
2023-01-12T09:32:29.147Z,55.75
2023-01-12T09:36:39.770Z,41.15
2023-01-12T09:40:43.121Z,44.67
2023-01-12T09:45:07.784Z,47.40
2023-01-12T09:49:09.911Z,47.65
2023-01-12T09:53:16.040Z,43.88
2023-01-12T09:57:55.440Z,51.05
2023-01-12T10:01:57.586Z,49.40
2023-01-12T10:06:02.950Z,48.42
2023-01-12T10:10:05.380Z,39.90
2023-01-12T10:14:37.501Z,45.53
2023-01-12T10:18:47.426Z,45.03
2023-01-12T10:22:54.581Z,35.47
2023-01-12T10:27:01.775Z,34.10
2023-01-12T10:31:04.427Z,39.35
2023-01-12T10:35:13.611Z,35.00
2023-01-12T10:39:38.578Z,38.45
2023-01-12T10:43:42.325Z,35.50
2023-01-12T10:47:45.868Z,30.00
2023-01-12T10:51:55.562Z,35.17
2023-01-12T10:55:59.070Z,27.08
2023-01-12T11:00:02.854Z,24.80
2023-01-12T11:04:05.568Z,26.30
2023-01-12T11:08:22.979Z,24.00
2023-01-12T11:12:34.497Z,29.15
2023-01-12T11:16:48.112Z,23.40
2023-01-12T11:21:00.053Z,18.58
2023-01-12T11:25:13.107Z,28.52
2023-01-12T11:29:39.945Z,27.17
2023-01-12T11:33:49.412Z,23.27
2023-01-12T11:37:55.473Z,28.38
2023-01-12T11:42:20.231Z,17.35
2023-01-12T11:46:40.543Z,22.27
2023-01-12T11:50:43.041Z,16.27
2023-01-12T11:54:45.087Z,14.82
2023-01-12T11:58:55.314Z,21.85
2023-01-12T12:03:20.377Z,23.05
2023-01-12T12:07:28.364Z,21.13
2023-01-12T12:11:42.222Z,23.77
2023-01-12T12:15:59.260Z,18.85
2023-01-12T12:20:12.477Z,25.05
2023-01-12T12:24:41.926Z,15.93
2023-01-12T12:29:03.019Z,21.00
2023-01-12T12:33:19.947Z,17.67
2023-01-12T12:37:40.090Z,23.77
2023-01-12T12:42:21.256Z,14.23
2023-01-12T12:46:49.610Z,18.80
2023-01-12T12:51:05.218Z,20.42
2023-01-12T12:55:12.224Z,17.40
2023-01-12T12:59:52.172Z,25.63
2023-01-12T13:03:58.973Z,23.70
2023-01-12T13:08:01.120Z,25.20
2023-01-12T13:12:02.774Z,19.63
2023-01-12T13:16:20.126Z,27.52
2023-01-12T13:20:34.518Z,18.13
2023-01-12T13:24:41.821Z,19.75
2023-01-12T13:28:43.531Z,17.27
2023-01-12T13:32:54.762Z,22.63
2023-01-12T13:37:31.530Z,23.60
2023-01-12T13:41:54.654Z,51.92
2023-01-12T13:46:01.804Z,18.63
2023-01-12T13:50:04.366Z,15.77
2023-01-12T13:54:10.496Z,19.98
2023-01-12T13:58:18.226Z,36.65
2023-01-12T14:02:20.418Z,21.27
2023-01-12T14:06:38.200Z,15.98
2023-01-12T14:10:53.647Z,18.75
2023-01-12T14:15:23.566Z,14.95
2023-01-12T14:19:28.105Z,17.55
2023-01-12T14:23:33.773Z,17.55
2023-01-12T14:27:35.762Z,17.98
2023-01-12T14:31:44.693Z,17.48
2023-01-12T14:35:48.821Z,17.75
2023-01-12T14:39:50.905Z,17.23
2023-01-12T14:44:12.020Z,20.95
2023-01-12T14:48:28.627Z,14.90
2023-01-12T14:52:32.949Z,10.95
2023-01-12T14:56:49.137Z,17.58
2023-01-12T15:00:51.293Z,15.63
2023-01-12T15:04:56.077Z,16.70
2023-01-12T15:09:02.929Z,20.20
2023-01-12T15:13:32.923Z,18.92
2023-01-12T15:17:53.485Z,22.05
2023-01-12T15:22:15.337Z,17.75
2023-01-12T15:26:18.137Z,20.83
2023-01-12T15:30:20.336Z,21.73
2023-01-12T15:34:22.283Z,19.42
2023-01-12T15:38:28.122Z,20.35
2023-01-12T15:42:30.034Z,22.20
2023-01-12T15:46:32.020Z,23.83
2023-01-12T15:50:37.596Z,21.27
2023-01-12T15:54:39.748Z,25.83
2023-01-12T15:58:41.778Z,19.50
2023-01-12T16:02:45.616Z,26.25
2023-01-12T16:06:49.069Z,29.40
2023-01-12T16:11:09.329Z,24.88
2023-01-12T16:15:20.282Z,22.67
2023-01-12T16:19:22.443Z,25.92
2023-01-12T16:23:24.456Z,34.55
2023-01-12T16:27:27.148Z,35.88
2023-01-12T16:31:29.261Z,37.88
2023-01-12T16:35:33.181Z,36.83
2023-01-12T16:39:35.071Z,29.48
2023-01-12T16:43:38.117Z,43.53
2023-01-12T16:47:40.124Z,46.13
2023-01-12T16:51:42.086Z,32.97
2023-01-12T16:55:44.021Z,38.03
2023-01-12T16:59:46.198Z,40.05
2023-01-12T17:03:49.078Z,46.70
2023-01-12T17:07:51.354Z,41.97
2023-01-12T17:11:54.919Z,42.70
2023-01-12T17:15:57.178Z,45.63
2023-01-12T17:19:59.645Z,48.03
2023-01-12T17:24:01.535Z,44.88
2023-01-12T17:28:03.528Z,40.33
2023-01-12T17:32:07.054Z,39.75
2023-01-12T17:36:11.645Z,39.42
2023-01-12T17:40:13.880Z,36.28
2023-01-12T17:44:16.181Z,41.85
2023-01-12T17:48:19.637Z,43.90
2023-01-12T17:52:22.056Z,37.45
2023-01-12T17:56:25.411Z,37.35
2023-01-12T18:00:27.547Z,33.90
2023-01-12T18:04:29.709Z,35.97
2023-01-12T18:08:31.905Z,35.85
2023-01-12T18:12:34.007Z,31.83
2023-01-12T18:16:36.257Z,40.33
2023-01-12T18:20:38.324Z,36.45
2023-01-12T18:24:40.481Z,41.80
2023-01-12T18:28:42.967Z,40.28
2023-01-12T18:32:45.359Z,40.83
2023-01-12T18:36:47.628Z,38.17
2023-01-12T18:41:09.680Z,44.78
2023-01-12T18:45:11.865Z,49.88
2023-01-12T18:49:13.869Z,42.67
2023-01-12T18:53:33.556Z,40.13
2023-01-12T18:57:35.604Z,40.38
2023-01-12T19:01:37.790Z,38.80
2023-01-12T19:05:53.262Z,40.50
2023-01-12T19:09:56.615Z,38.67
2023-01-12T19:14:16.849Z,42.72
2023-01-12T19:18:19.080Z,37.78
2023-01-12T19:22:39.863Z,35.05
2023-01-12T19:27:01.159Z,36.50
2023-01-12T19:31:06.547Z,41.17
2023-01-12T19:35:11.377Z,33.90
2023-01-12T19:39:13.956Z,36.08
2023-01-12T19:43:20.465Z,32.55
2023-01-12T19:47:22.286Z,36.33
2023-01-12T19:51:24.458Z,28.02
2023-01-12T19:55:26.842Z,37.25
2023-01-12T19:59:28.939Z,24.80
2023-01-12T20:03:31.098Z,33.63
2023-01-12T20:07:33.325Z,30.60
2023-01-12T20:11:35.342Z,33.38
2023-01-12T20:15:38.991Z,31.88
2023-01-12T20:19:41.141Z,27.70
2023-01-12T20:23:43.244Z,30.58
2023-01-12T20:27:49.124Z,29.73
2023-01-12T20:31:52.855Z,28.90
2023-01-12T20:35:55.266Z,31.45
2023-01-12T20:39:58.069Z,30.73
2023-01-12T20:44:00.198Z,31.40
2023-01-12T20:48:02.190Z,30.70
2023-01-12T20:52:04.219Z,26.17
2023-01-12T20:56:07.064Z,33.63
2023-01-12T21:00:14.437Z,33.78
2023-01-12T21:04:19.358Z,32.22
2023-01-12T21:08:21.385Z,34.03
2023-01-12T21:12:24.317Z,27.75
2023-01-12T21:16:28.498Z,35.00
2023-01-12T21:20:30.604Z,28.90
2023-01-12T21:24:32.309Z,31.75
2023-01-12T21:28:37.060Z,34.75
2023-01-12T21:32:39.302Z,33.53
2023-01-12T21:36:41.405Z,33.15
2023-01-12T21:40:43.329Z,29.83
2023-01-12T21:44:45.533Z,33.30
2023-01-12T21:48:47.551Z,33.58
2023-01-12T21:52:49.560Z,31.00
2023-01-12T21:56:51.546Z,37.55
2023-01-12T22:00:53.956Z,31.77
2023-01-12T22:04:55.974Z,30.67
2023-01-12T22:08:58.732Z,35.28
2023-01-12T22:13:02.722Z,26.90
2023-01-12T22:17:04.666Z,30.50
2023-01-12T22:21:08.802Z,29.30
2023-01-12T22:25:13.040Z,38.80
2023-01-12T22:29:15.136Z,33.97
2023-01-12T22:33:17.295Z,29.33
2023-01-12T22:37:19.200Z,29.58
2023-01-12T22:41:22.541Z,28.52
2023-01-12T22:45:24.638Z,32.03
2023-01-12T22:49:26.622Z,34.10
2023-01-12T22:53:28.603Z,31.63
2023-01-12T22:57:30.853Z,29.60
2023-01-12T23:01:33.401Z,32.05
2023-01-12T23:05:42.791Z,27.73
2023-01-12T23:09:44.466Z,29.33
2023-01-12T23:13:46.885Z,28.95
2023-01-12T23:17:48.845Z,27.38
2023-01-12T23:21:50.567Z,28.88
2023-01-12T23:25:52.544Z,26.10
2023-01-12T23:29:54.202Z,28.58
2023-01-12T23:33:59.430Z,25.30
2023-01-12T23:38:01.612Z,30.40
2023-01-12T23:42:03.542Z,31.23
2023-01-12T23:46:05.799Z,29.50
2023-01-12T23:50:08.524Z,25.17
2023-01-12T23:54:16.383Z,32.70
2023-01-12T23:58:18.913Z,29.27
